createdAt,value
2023-05-21T00:00:34.850Z,100.00
2023-05-21T00:03:13.797Z,100.00
2023-05-21T00:05:47.303Z,100.00
2023-05-21T00:08:20.222Z,100.00
2023-05-21T00:10:54.417Z,100.00
2023-05-21T00:13:27.261Z,100.00
2023-05-21T00:16:00.418Z,100.00
2023-05-21T00:18:34.304Z,100.00
2023-05-21T00:21:07.700Z,100.00
2023-05-21T00:23:42.742Z,100.00
2023-05-21T00:26:17.017Z,100.00
2023-05-21T00:28:51.010Z,100.00
2023-05-21T00:31:23.991Z,100.00
2023-05-21T00:33:57.188Z,100.00
2023-05-21T00:36:30.944Z,100.00
2023-05-21T00:39:04.594Z,99.99
2023-05-21T00:41:40.096Z,99.11
2023-05-21T00:44:14.167Z,99.35
2023-05-21T00:46:48.857Z,100.00
2023-05-21T00:49:24.527Z,100.00
2023-05-21T00:51:57.814Z,100.00
2023-05-21T00:54:31.560Z,100.00
2023-05-21T00:57:06.907Z,100.00
2023-05-21T00:59:40.818Z,100.00
2023-05-21T01:02:14.354Z,100.00
2023-05-21T01:04:47.614Z,100.00
2023-05-21T01:07:20.436Z,100.00
2023-05-21T01:09:54.279Z,100.00
2023-05-21T01:12:28.719Z,100.00
2023-05-21T01:15:03.824Z,100.00
2023-05-21T01:17:36.869Z,100.00
2023-05-21T01:20:11.410Z,100.00
2023-05-21T01:22:50.229Z,100.00
2023-05-21T01:25:24.205Z,100.00
2023-05-21T01:27:57.910Z,100.00
2023-05-21T01:30:30.837Z,100.00
2023-05-21T01:33:09.160Z,100.00
2023-05-21T01:35:48.546Z,100.00
2023-05-21T01:38:27.250Z,100.00
2023-05-21T01:41:04.656Z,100.00
2023-05-21T01:43:40.316Z,100.00
2023-05-21T01:46:18.230Z,100.00
2023-05-21T01:48:53.827Z,100.00
2023-05-21T01:51:28.176Z,100.00
2023-05-21T01:54:02.619Z,100.00
2023-05-21T01:56:37.120Z,100.00
2023-05-21T01:59:10.180Z,100.00
2023-05-21T02:01:43.136Z,100.00
2023-05-21T02:04:15.990Z,100.00
2023-05-21T02:06:48.831Z,100.00
2023-05-21T02:09:23.007Z,100.00
2023-05-21T02:11:57.033Z,100.00
2023-05-21T02:14:30.776Z,100.00
2023-05-21T02:17:03.630Z,100.00
2023-05-21T02:19:36.508Z,100.00
2023-05-21T02:22:09.437Z,100.00
2023-05-21T02:24:43.723Z,100.00
2023-05-21T02:27:17.755Z,100.00
2023-05-21T02:29:50.536Z,100.00
2023-05-21T02:32:23.738Z,100.00
2023-05-21T02:34:56.874Z,100.00
2023-05-21T02:37:29.735Z,100.00
2023-05-21T02:40:06.046Z,100.00
2023-05-21T02:42:41.516Z,100.00
2023-05-21T02:45:17.588Z,100.00
2023-05-21T02:47:50.556Z,100.00
2023-05-21T02:50:25.549Z,100.00
2023-05-21T02:53:02.626Z,100.00
2023-05-21T02:55:37.722Z,100.00
2023-05-21T02:58:13.517Z,100.00
2023-05-21T03:00:46.921Z,100.00
2023-05-21T03:03:20.325Z,100.00
2023-05-21T03:05:53.571Z,100.00
2023-05-21T03:08:26.492Z,100.00
2023-05-21T03:11:00.741Z,100.00
2023-05-21T03:13:33.725Z,100.00
2023-05-21T03:16:07.042Z,100.00
2023-05-21T03:18:39.849Z,100.00
2023-05-21T03:21:18.300Z,100.00
2023-05-21T03:23:51.418Z,100.00
2023-05-21T03:26:27.325Z,100.00
2023-05-21T03:29:01.536Z,100.00
2023-05-21T03:31:34.573Z,100.00
2023-05-21T03:34:13.689Z,100.00
2023-05-21T03:36:47.273Z,100.00
2023-05-21T03:39:21.536Z,100.00
2023-05-21T03:41:56.248Z,100.00
2023-05-21T03:44:38.236Z,100.00
2023-05-21T03:47:45.840Z,100.00
2023-05-21T03:50:18.958Z,100.00
2023-05-21T03:52:51.809Z,100.00
2023-05-21T03:55:24.726Z,100.00
2023-05-21T03:57:58.935Z,100.00
2023-05-21T04:00:32.630Z,100.00
2023-05-21T04:03:07.199Z,100.00
2023-05-21T04:05:40.404Z,100.00
2023-05-21T04:08:13.556Z,100.00
2023-05-21T04:10:46.455Z,100.00
2023-05-21T04:13:20.734Z,100.00
2023-05-21T04:15:54.489Z,100.00
2023-05-21T04:18:27.428Z,100.00
2023-05-21T04:21:00.916Z,100.00
2023-05-21T04:23:36.662Z,100.00
2023-05-21T04:26:13.717Z,100.00
2023-05-21T04:28:50.482Z,100.00
2023-05-21T04:31:23.718Z,100.00
2023-05-21T04:33:57.040Z,100.00
2023-05-21T04:36:30.187Z,100.00
2023-05-21T04:39:06.319Z,99.52
2023-05-21T04:41:39.565Z,99.11
2023-05-21T04:44:15.426Z,98.61
2023-05-21T04:46:50.722Z,97.99
2023-05-21T04:49:24.093Z,97.85
2023-05-21T04:51:57.636Z,97.22
2023-05-21T04:54:30.563Z,97.25
2023-05-21T04:57:03.459Z,97.60
2023-05-21T04:59:37.814Z,98.67
2023-05-21T05:02:10.670Z,98.53
2023-05-21T05:04:43.987Z,98.13
2023-05-21T05:07:17.306Z,98.02
2023-05-21T05:09:50.160Z,97.65
2023-05-21T05:12:23.090Z,97.68
2023-05-21T05:14:57.365Z,98.42
2023-05-21T05:17:30.260Z,97.62
2023-05-21T05:20:05.207Z,97.60
2023-05-21T05:22:38.429Z,98.17
2023-05-21T05:25:11.220Z,97.37
2023-05-21T05:27:44.155Z,97.64
2023-05-21T05:30:18.460Z,96.48
2023-05-21T05:32:51.497Z,95.45
2023-05-21T05:35:24.627Z,94.53
2023-05-21T05:37:57.660Z,94.37
2023-05-21T05:40:30.622Z,94.73
2023-05-21T05:43:03.452Z,94.40
2023-05-21T05:45:38.221Z,93.63
2023-05-21T05:48:16.872Z,93.44
2023-05-21T05:50:54.554Z,93.05
2023-05-21T05:53:28.649Z,93.71
2023-05-21T05:56:03.040Z,93.45
2023-05-21T05:58:37.320Z,91.97
2023-05-21T06:01:17.853Z,92.87
2023-05-21T06:03:51.333Z,90.85
2023-05-21T06:06:26.918Z,89.78
2023-05-21T06:08:59.715Z,90.06
2023-05-21T06:11:32.491Z,89.54
2023-05-21T06:14:05.434Z,88.38
2023-05-21T06:16:40.297Z,87.08
2023-05-21T06:19:13.491Z,86.54
2023-05-21T06:21:46.450Z,86.41
2023-05-21T06:24:19.552Z,84.71
2023-05-21T06:26:52.503Z,84.96
2023-05-21T06:29:25.738Z,84.31
2023-05-21T06:32:02.725Z,84.03
2023-05-21T06:34:35.709Z,82.44
2023-05-21T06:37:08.707Z,81.03
2023-05-21T06:39:41.804Z,79.75
2023-05-21T06:42:14.992Z,79.46
2023-05-21T06:44:59.605Z,78.35
2023-05-21T06:47:37.518Z,77.86
2023-05-21T06:50:10.824Z,78.12
2023-05-21T06:52:43.957Z,75.93
2023-05-21T06:55:17.272Z,76.48
2023-05-21T06:58:08.754Z,75.86
2023-05-21T07:00:41.969Z,76.37
2023-05-21T07:03:17.458Z,75.24
2023-05-21T07:05:50.451Z,73.99
2023-05-21T07:08:23.729Z,75.33
2023-05-21T07:10:59.470Z,75.03
2023-05-21T07:13:32.533Z,75.68
2023-05-21T07:16:06.330Z,75.29
2023-05-21T07:18:40.465Z,73.75
2023-05-21T07:21:13.389Z,73.28
2023-05-21T07:23:46.252Z,72.95
2023-05-21T07:26:19.428Z,72.89
2023-05-21T07:28:52.307Z,72.94
2023-05-21T07:31:26.059Z,72.32
2023-05-21T07:34:00.861Z,73.07
2023-05-21T07:36:37.297Z,72.60
2023-05-21T07:39:10.623Z,72.66
2023-05-21T07:41:44.322Z,73.95
2023-05-21T07:44:17.408Z,73.96
2023-05-21T07:46:52.373Z,72.97
2023-05-21T07:49:27.390Z,72.98
2023-05-21T07:52:00.418Z,74.47
2023-05-21T07:54:33.316Z,73.96
2023-05-21T07:57:06.908Z,72.69
2023-05-21T07:59:56.515Z,71.52
2023-05-21T08:02:30.065Z,71.24
2023-05-21T08:05:04.692Z,71.22
2023-05-21T08:07:37.938Z,71.46
2023-05-21T08:10:11.427Z,68.18
2023-05-21T08:12:44.443Z,70.17
2023-05-21T08:15:18.408Z,67.45
2023-05-21T08:17:53.269Z,66.56
2023-05-21T08:20:27.888Z,66.62
2023-05-21T08:23:01.385Z,65.90
2023-05-21T08:25:39.607Z,64.62
2023-05-21T08:28:12.659Z,63.60
2023-05-21T08:30:46.713Z,62.92
2023-05-21T08:33:21.421Z,62.57
2023-05-21T08:35:56.126Z,61.22
2023-05-21T08:38:33.934Z,63.42
2023-05-21T08:41:15.533Z,62.29
2023-05-21T08:43:50.854Z,62.69
2023-05-21T08:46:25.720Z,61.86
2023-05-21T08:49:00.132Z,61.11
2023-05-21T08:51:34.576Z,62.20
2023-05-21T08:54:10.245Z,62.20
2023-05-21T08:56:49.317Z,61.52
2023-05-21T08:59:24.067Z,60.43
2023-05-21T09:01:58.286Z,59.58
2023-05-21T09:04:38.898Z,59.09
2023-05-21T09:07:13.713Z,57.20
2023-05-21T09:10:13.419Z,57.27
2023-05-21T09:12:49.038Z,59.91
2023-05-21T09:15:22.812Z,56.24
2023-05-21T09:17:56.024Z,57.71
2023-05-21T09:20:58.113Z,56.99
2023-05-21T09:23:34.091Z,57.65
2023-05-21T09:26:13.816Z,55.56
2023-05-21T09:28:46.787Z,55.53
2023-05-21T09:31:20.084Z,55.90
2023-05-21T09:33:55.557Z,56.00
2023-05-21T09:36:30.864Z,56.93
2023-05-21T09:39:08.515Z,53.58
2023-05-21T09:41:44.216Z,53.20
2023-05-21T09:44:20.237Z,54.20
2023-05-21T09:46:58.937Z,53.82
2023-05-21T09:49:31.979Z,54.40
2023-05-21T09:52:06.725Z,54.94
2023-05-21T09:54:42.188Z,55.63
2023-05-21T09:57:17.375Z,55.24
2023-05-21T09:59:52.175Z,54.45
2023-05-21T10:02:26.587Z,54.20
2023-05-21T10:05:00.902Z,53.83
2023-05-21T10:07:35.765Z,54.20
2023-05-21T10:10:14.686Z,52.21
2023-05-21T10:12:48.876Z,54.62
2023-05-21T10:15:25.186Z,54.24
2023-05-21T10:18:00.388Z,53.11
2023-05-21T10:20:34.642Z,51.81
2023-05-21T10:23:09.005Z,53.31
2023-05-21T10:25:43.603Z,51.19
2023-05-21T10:28:18.611Z,50.46
2023-05-21T10:30:51.642Z,49.22
2023-05-21T10:33:25.202Z,49.40
2023-05-21T10:35:59.987Z,49.59
2023-05-21T10:38:34.736Z,49.95
2023-05-21T10:41:11.109Z,49.53
2023-05-21T10:43:58.401Z,49.48
2023-05-21T10:47:03.918Z,49.67
2023-05-21T10:49:52.569Z,47.23
2023-05-21T10:52:47.874Z,49.96
2023-05-21T10:55:43.905Z,49.21
2023-05-21T10:58:47.578Z,49.31
2023-05-21T11:01:26.739Z,50.91
2023-05-21T11:04:00.094Z,48.59
2023-05-21T11:06:33.364Z,48.33
2023-05-21T11:09:13.781Z,49.75
2023-05-21T11:11:51.270Z,48.81
2023-05-21T11:14:31.931Z,48.85
2023-05-21T11:17:11.258Z,50.38
2023-05-21T11:19:47.165Z,49.73
2023-05-21T11:22:24.362Z,49.78
2023-05-21T11:25:01.996Z,48.64
2023-05-21T11:27:37.353Z,46.87
2023-05-21T11:30:17.142Z,49.23
2023-05-21T11:33:29.838Z,48.39
2023-05-21T11:36:03.514Z,49.87
2023-05-21T11:38:39.429Z,48.33
2023-05-21T11:41:12.839Z,48.00
2023-05-21T11:43:46.139Z,48.18
2023-05-21T11:46:21.022Z,48.21
2023-05-21T11:49:25.589Z,47.79
2023-05-21T11:51:59.781Z,48.83
2023-05-21T11:54:37.570Z,48.67
2023-05-21T11:57:13.755Z,47.72
2023-05-21T11:59:47.483Z,47.91
2023-05-21T12:02:23.496Z,48.34
2023-05-21T12:05:00.141Z,45.42
2023-05-21T12:07:33.710Z,47.27
2023-05-21T12:13:01.991Z,45.37
2023-05-21T12:15:39.277Z,46.15
2023-05-21T12:18:17.933Z,44.38
2023-05-21T12:20:52.442Z,45.98
2023-05-21T12:23:28.049Z,46.10
2023-05-21T12:26:06.908Z,46.28
2023-05-21T12:28:40.647Z,45.23
2023-05-21T12:31:16.374Z,44.68
2023-05-21T12:33:51.532Z,48.11
2023-05-21T12:36:28.372Z,45.41
2023-05-21T12:39:01.539Z,43.79
2023-05-21T12:41:34.554Z,43.95
2023-05-21T12:44:08.795Z,44.20
2023-05-21T12:46:42.834Z,42.82
2023-05-21T12:49:38.774Z,43.96
2023-05-21T12:52:13.510Z,44.20
2023-05-21T12:54:50.501Z,44.66
2023-05-21T12:57:28.490Z,43.64
2023-05-21T13:00:06.736Z,45.21
2023-05-21T13:02:41.671Z,44.00
2023-05-21T13:05:19.604Z,42.80
2023-05-21T13:07:52.827Z,44.10
2023-05-21T13:10:27.083Z,42.77
2023-05-21T13:13:00.596Z,41.84
2023-05-21T13:15:33.812Z,43.69
2023-05-21T13:18:06.698Z,44.03
2023-05-21T13:20:41.173Z,43.90
2023-05-21T13:23:14.341Z,43.03
2023-05-21T13:25:47.245Z,43.12
2023-05-21T13:28:20.248Z,43.54
2023-05-21T13:30:54.979Z,45.83
2023-05-21T13:33:33.852Z,46.66
2023-05-21T13:36:08.951Z,46.24
2023-05-21T13:38:42.027Z,45.64
2023-05-21T13:41:17.469Z,45.90
2023-05-21T13:43:52.798Z,44.53
2023-05-21T13:46:26.430Z,45.68
2023-05-21T13:49:00.740Z,46.53
2023-05-21T13:51:38.514Z,44.52
2023-05-21T13:54:14.106Z,44.50
2023-05-21T13:56:47.079Z,45.92
2023-05-21T13:59:20.254Z,47.04
2023-05-21T14:01:55.457Z,44.77
2023-05-21T14:04:30.049Z,46.13
2023-05-21T14:07:04.635Z,46.45
2023-05-21T14:09:39.873Z,46.81
2023-05-21T14:12:12.960Z,46.97
2023-05-21T14:14:46.091Z,46.55
2023-05-21T14:17:19.350Z,47.10
2023-05-21T14:19:52.413Z,47.43
2023-05-21T14:22:26.843Z,47.66
2023-05-21T14:25:00.361Z,48.20
2023-05-21T14:27:34.343Z,49.46
2023-05-21T14:30:08.454Z,48.88
2023-05-21T14:32:41.447Z,48.79
2023-05-21T14:35:14.332Z,49.86
2023-05-21T14:37:50.186Z,48.80
2023-05-21T14:40:23.708Z,47.69
2023-05-21T14:42:56.776Z,47.92
2023-05-21T14:45:29.993Z,48.52
2023-05-21T14:48:08.624Z,49.35
2023-05-21T14:50:42.583Z,48.87
2023-05-21T14:53:17.462Z,48.51
2023-05-21T14:55:50.746Z,50.09
2023-05-21T14:58:24.243Z,49.14
2023-05-21T15:00:57.660Z,49.94
2023-05-21T15:03:30.997Z,48.85
2023-05-21T15:06:04.364Z,48.24
2023-05-21T15:08:39.054Z,48.86
2023-05-21T15:11:12.258Z,48.84
2023-05-21T15:13:45.447Z,49.25
2023-05-21T15:16:19.796Z,48.09
2023-05-21T15:18:53.067Z,50.14
2023-05-21T15:21:27.978Z,50.69
2023-05-21T15:24:02.812Z,48.88
2023-05-21T15:26:35.947Z,49.79
2023-05-21T15:29:08.998Z,48.13
2023-05-21T15:31:42.296Z,51.39
2023-05-21T15:34:18.051Z,47.92
2023-05-21T15:36:51.289Z,49.15
2023-05-21T15:39:31.839Z,50.77
2023-05-21T15:42:05.052Z,49.85
2023-05-21T15:44:38.330Z,51.20
2023-05-21T15:47:11.405Z,52.33
2023-05-21T15:49:44.320Z,50.79
2023-05-21T15:52:17.717Z,52.08
2023-05-21T15:54:52.270Z,51.65
2023-05-21T15:57:25.421Z,52.37
2023-05-21T15:59:59.056Z,50.03
2023-05-21T16:02:32.383Z,51.52
2023-05-21T16:05:06.681Z,51.79
2023-05-21T16:07:40.223Z,51.38
2023-05-21T16:10:15.374Z,52.96
2023-05-21T16:12:48.889Z,49.42
2023-05-21T16:15:22.519Z,51.13
2023-05-21T16:17:56.156Z,49.58
2023-05-21T16:23:53.274Z,51.30
2023-05-21T16:26:35.826Z,50.86
2023-05-21T16:29:19.259Z,49.90
2023-05-21T16:31:55.583Z,49.49
2023-05-21T16:34:29.203Z,50.85
2023-05-21T16:37:02.674Z,51.16
2023-05-21T16:39:36.412Z,51.38
2023-05-21T16:42:13.541Z,50.23
2023-05-21T16:44:47.779Z,51.55
2023-05-21T16:47:26.085Z,50.44
2023-05-21T16:49:59.811Z,50.41
2023-05-21T16:52:33.470Z,52.83
2023-05-21T16:55:29.357Z,52.11
2023-05-21T16:58:06.427Z,52.02
2023-05-21T17:00:39.596Z,51.21
2023-05-21T17:03:13.046Z,52.88
2023-05-21T17:05:49.637Z,51.99
2023-05-21T17:08:23.206Z,52.50
2023-05-21T17:11:01.450Z,53.15
2023-05-21T17:13:52.497Z,53.29
2023-05-21T17:16:26.207Z,51.89
2023-05-21T17:19:02.483Z,51.86
2023-05-21T17:21:35.987Z,52.52
2023-05-21T17:24:09.082Z,52.83
2023-05-21T17:26:42.265Z,53.01
2023-05-21T17:29:17.115Z,51.89
2023-05-21T17:31:50.925Z,53.37
2023-05-21T17:34:29.483Z,53.23
2023-05-21T17:37:02.866Z,52.93
2023-05-21T17:39:36.315Z,52.57
2023-05-21T17:42:09.879Z,52.23
2023-05-21T17:44:44.333Z,53.62
2023-05-21T17:47:17.257Z,52.41
2023-05-21T17:49:50.229Z,52.10
2023-05-21T17:52:23.313Z,53.29
2023-05-21T17:54:56.419Z,54.79
2023-05-21T17:57:29.619Z,53.56
2023-05-21T18:00:05.185Z,54.95
2023-05-21T18:02:44.918Z,54.52
2023-05-21T18:05:18.096Z,56.14
2023-05-21T18:07:51.469Z,56.29
2023-05-21T18:10:24.737Z,56.59
2023-05-21T18:12:58.018Z,57.13
2023-05-21T18:15:33.192Z,55.22
2023-05-21T18:18:06.522Z,56.57
2023-05-21T18:20:39.765Z,56.89
2023-05-21T18:23:12.884Z,57.12
2023-05-21T18:25:45.901Z,57.66
2023-05-21T18:28:18.889Z,56.90
2023-05-21T18:30:55.197Z,56.45
2023-05-21T18:33:28.598Z,56.09
2023-05-21T18:36:01.891Z,56.53
2023-05-21T18:38:34.946Z,58.13
2023-05-21T18:41:08.061Z,57.12
2023-05-21T18:43:42.262Z,57.31
2023-05-21T18:46:16.680Z,58.63
2023-05-21T18:48:49.941Z,58.38
2023-05-21T18:51:22.939Z,61.49
2023-05-21T18:53:55.891Z,63.47
2023-05-21T18:56:28.767Z,65.23
2023-05-21T18:59:01.669Z,64.64
2023-05-21T19:01:36.044Z,64.38
2023-05-21T19:04:08.960Z,67.04
2023-05-21T19:06:41.823Z,67.55
2023-05-21T19:09:15.137Z,67.77
2023-05-21T19:11:48.240Z,67.66
2023-05-21T19:14:21.409Z,67.48
2023-05-21T19:16:55.847Z,67.91
2023-05-21T19:19:28.784Z,68.58
2023-05-21T19:22:01.872Z,68.99
2023-05-21T19:24:34.786Z,68.46
2023-05-21T19:27:07.568Z,68.15
2023-05-21T19:29:40.381Z,67.63
2023-05-21T19:32:15.969Z,68.94
2023-05-21T19:34:48.867Z,68.84
2023-05-21T19:37:21.814Z,68.79
2023-05-21T19:39:54.601Z,70.33
2023-05-21T19:42:27.648Z,72.93
2023-05-21T19:45:00.522Z,73.15
2023-05-21T19:47:34.839Z,73.08
2023-05-21T19:50:10.081Z,75.85
2023-05-21T19:52:45.350Z,77.04
2023-05-21T19:55:20.222Z,77.20
2023-05-21T19:57:53.313Z,77.88
2023-05-21T20:00:26.361Z,78.64
2023-05-21T20:03:00.731Z,79.79
2023-05-21T20:05:33.574Z,79.52
2023-05-21T20:08:06.458Z,80.31
2023-05-21T20:10:40.472Z,80.61
2023-05-21T20:13:13.498Z,80.11
2023-05-21T20:15:47.873Z,81.29
2023-05-21T20:18:22.342Z,81.22
2023-05-21T20:20:56.846Z,81.99
2023-05-21T20:23:29.682Z,83.07
2023-05-21T20:26:02.536Z,84.68
2023-05-21T20:28:35.546Z,84.14
2023-05-21T20:31:08.494Z,84.87
2023-05-21T20:33:43.040Z,84.99
2023-05-21T20:36:17.781Z,84.65
2023-05-21T20:38:50.631Z,84.70
2023-05-21T20:41:25.264Z,84.97
2023-05-21T20:43:58.996Z,85.23
2023-05-21T20:46:32.414Z,85.52
2023-05-21T20:49:06.829Z,86.78
2023-05-21T20:51:40.023Z,87.67
2023-05-21T20:54:13.546Z,88.57
2023-05-21T20:56:46.410Z,88.69
2023-05-21T20:59:19.558Z,87.93
2023-05-21T21:01:52.596Z,88.34
2023-05-21T21:04:27.659Z,88.17
2023-05-21T21:07:02.011Z,89.38
2023-05-21T21:09:34.997Z,89.74
2023-05-21T21:12:24.165Z,89.70
2023-05-21T21:14:58.744Z,89.16
2023-05-21T21:17:31.627Z,90.37
2023-05-21T21:20:07.888Z,90.68
2023-05-21T21:22:41.318Z,92.18
2023-05-21T21:25:15.285Z,93.40
2023-05-21T21:27:48.316Z,92.78
2023-05-21T21:30:21.375Z,93.59
2023-05-21T21:32:54.410Z,91.57
2023-05-21T21:35:28.803Z,91.77
2023-05-21T21:38:02.032Z,90.82
2023-05-21T21:40:35.024Z,91.20
2023-05-21T21:43:08.033Z,91.43
2023-05-21T21:45:41.265Z,94.19
2023-05-21T21:48:16.428Z,93.49
2023-05-21T21:50:50.840Z,92.23
2023-05-21T21:53:23.744Z,92.13
2023-05-21T21:55:56.932Z,92.45
2023-05-21T21:58:30.016Z,91.14
2023-05-21T22:01:02.897Z,90.45
2023-05-21T22:03:35.706Z,90.88
2023-05-21T22:06:09.986Z,90.77
2023-05-21T22:08:43.026Z,91.04
2023-05-21T22:11:15.823Z,91.51
2023-05-21T22:13:48.824Z,91.73
2023-05-21T22:16:21.705Z,92.36
2023-05-21T22:18:55.185Z,93.01
2023-05-21T22:21:32.756Z,95.00
2023-05-21T22:24:05.901Z,95.37
2023-05-21T22:26:38.692Z,97.97
2023-05-21T22:29:11.577Z,96.04
2023-05-21T22:31:44.483Z,97.43
2023-05-21T22:34:17.320Z,97.67
2023-05-21T22:36:51.520Z,96.95
2023-05-21T22:39:24.347Z,97.89
2023-05-21T22:41:57.256Z,97.86
2023-05-21T22:44:30.068Z,97.13
2023-05-21T22:47:03.343Z,95.57
2023-05-21T22:49:38.086Z,96.06
2023-05-21T22:52:12.309Z,96.26
2023-05-21T22:54:45.149Z,96.49
2023-05-21T22:57:17.951Z,96.76
2023-05-21T22:59:50.827Z,96.78
2023-05-21T23:02:23.823Z,95.96
2023-05-21T23:04:58.110Z,95.91
2023-05-21T23:07:32.389Z,96.66
2023-05-21T23:10:05.959Z,96.93
2023-05-21T23:12:38.832Z,96.78
2023-05-21T23:15:12.372Z,97.95
2023-05-21T23:17:45.841Z,98.59
2023-05-21T23:20:19.009Z,97.82
2023-05-21T23:22:53.511Z,99.04
2023-05-21T23:25:26.343Z,100.00
2023-05-21T23:27:59.123Z,100.00
2023-05-21T23:30:32.015Z,100.00
2023-05-21T23:33:04.977Z,100.00
2023-05-21T23:35:37.764Z,99.72
2023-05-21T23:38:11.972Z,98.29
2023-05-21T23:40:44.840Z,97.24
2023-05-21T23:43:17.816Z,97.05
2023-05-21T23:45:50.684Z,97.62
2023-05-21T23:48:23.648Z,97.88
2023-05-21T23:50:56.567Z,98.26
2023-05-21T23:53:30.780Z,97.99
2023-05-21T23:56:03.624Z,97.54
2023-05-21T23:58:36.472Z,98.37
